Fribourg, Switzerland
Current Conditions -  °F | °C
As of 4:50 PM on Thursday 25 Dec 2014 (Local Time) from LSMP Reporting Station
Broken Clouds Broken Clouds  
Wind Chill: 43°   Ceiling: 5000
Heat Index: 43°   Visibility: 6mi
Dew Point: 32°   Wind: 0mph
Humidity: 66%   Direction: NA
Pressure: 30.33"   Gusts: NA
Location:  46.81°N, 7.14°E
Report Text: LSMP 251550Z AUTO 00000KT 9999NDV BKN050 BKN150 06/M00 Q1027 RMK WHT
Loading
Personal Weather Stations






























Interactive Weather Map New forecast layout! Learn more

10-Day Weather Forecast

Advertisements
Track Severe Weather on mobile